createdAt,value
2022-09-23T00:01:59.492Z,83.15
2022-09-23T00:04:30.080Z,82.74
2022-09-23T00:06:59.257Z,82.83
2022-09-23T00:09:28.653Z,83.15
2022-09-23T00:11:57.590Z,83.02
2022-09-23T00:14:28.328Z,82.98
2022-09-23T00:16:57.616Z,83.19
2022-09-23T00:19:43.592Z,82.92
2022-09-23T00:22:25.995Z,83.08
2022-09-23T00:24:55.713Z,83.06
2022-09-23T00:27:24.542Z,83.29
2022-09-23T00:29:53.354Z,83.18
2022-09-23T00:32:22.583Z,83.02
2022-09-23T00:35:06.002Z,83.21
2022-09-23T00:37:35.185Z,83.28
2022-09-23T00:40:04.908Z,83.23
2022-09-23T00:42:35.168Z,83.19
2022-09-23T00:45:04.827Z,83.44
2022-09-23T00:48:02.107Z,83.38
2022-09-23T00:50:44.527Z,83.43
2022-09-23T00:53:20.430Z,83.39
2022-09-23T00:55:58.262Z,83.55
2022-09-23T00:58:32.634Z,83.64
2022-09-23T01:01:04.135Z,83.59
2022-09-23T01:03:33.653Z,83.64
2022-09-23T01:06:03.275Z,83.68
2022-09-23T01:08:48.145Z,83.77
2022-09-23T01:11:53.530Z,83.58
2022-09-23T01:15:01.168Z,83.58
2022-09-23T01:17:48.819Z,83.76
2022-09-23T01:20:56.391Z,83.61
2022-09-23T01:23:44.742Z,83.62
2022-09-23T01:26:53.419Z,83.78
2022-09-23T01:29:54.350Z,83.78
2022-09-23T01:32:34.728Z,84.07
2022-09-23T01:35:10.449Z,84.10
2022-09-23T01:37:42.283Z,84.21
2022-09-23T01:40:56.765Z,84.11
2022-09-23T01:43:57.590Z,84.24
2022-09-23T01:46:42.560Z,84.02
2022-09-23T01:49:43.827Z,84.06
2022-09-23T01:52:16.806Z,84.20
2022-09-23T01:55:02.303Z,84.13
2022-09-23T01:57:53.473Z,84.45
2022-09-23T02:00:24.752Z,84.64
2022-09-23T02:03:01.442Z,84.60
2022-09-23T02:05:54.051Z,84.59
2022-09-23T02:08:34.035Z,84.34
2022-09-23T02:11:12.384Z,84.56
2022-09-23T02:13:50.305Z,84.59
2022-09-23T02:16:44.054Z,84.79
2022-09-23T02:19:28.439Z,84.66
2022-09-23T02:22:45.904Z,84.44
2022-09-23T02:25:42.245Z,84.64
2022-09-23T02:28:20.344Z,84.63
2022-09-23T02:31:12.671Z,84.65
2022-09-23T02:34:11.955Z,84.57
2022-09-23T02:36:53.562Z,84.54
2022-09-23T02:39:27.126Z,84.48
2022-09-23T02:42:16.781Z,84.72
2022-09-23T02:44:46.225Z,84.66
2022-09-23T02:47:17.386Z,84.64
2022-09-23T02:50:00.287Z,84.88
2022-09-23T02:52:29.566Z,84.69
2022-09-23T02:54:59.128Z,84.72
2022-09-23T02:57:28.964Z,84.87
2022-09-23T02:59:59.141Z,84.83
2022-09-23T03:02:52.523Z,84.68
2022-09-23T03:05:32.395Z,84.86
2022-09-23T03:08:23.701Z,84.71
2022-09-23T03:11:04.958Z,84.90
2022-09-23T03:13:47.157Z,85.16
2022-09-23T03:16:33.138Z,85.13
2022-09-23T03:19:20.611Z,84.92
2022-09-23T03:21:56.247Z,85.11
2022-09-23T03:24:25.830Z,85.03
2022-09-23T03:27:14.350Z,85.04
2022-09-23T03:29:49.899Z,84.89
2022-09-23T03:32:35.045Z,85.15
2022-09-23T03:35:18.639Z,85.08
2022-09-23T03:38:12.851Z,85.20
2022-09-23T03:40:48.373Z,85.18
2022-09-23T03:43:38.554Z,85.25
2022-09-23T03:46:09.486Z,85.13
2022-09-23T03:48:38.905Z,85.17
2022-09-23T03:51:24.572Z,85.13
2022-09-23T03:54:07.158Z,84.76
2022-09-23T03:56:38.202Z,85.00
2022-09-23T03:59:07.872Z,85.23
2022-09-23T04:01:50.541Z,85.29
2022-09-23T04:04:34.960Z,85.02
2022-09-23T04:07:17.944Z,84.78
2022-09-23T04:09:46.875Z,84.97
2022-09-23T04:12:17.690Z,85.13
2022-09-23T04:14:47.215Z,85.26
2022-09-23T04:17:17.104Z,85.10
2022-09-23T04:19:46.041Z,85.03
2022-09-23T04:22:15.150Z,85.16
2022-09-23T04:24:44.105Z,85.21
2022-09-23T04:27:13.156Z,85.13
2022-09-23T04:29:42.580Z,85.18
2022-09-23T04:32:12.510Z,85.07
2022-09-23T04:34:41.516Z,85.47
2022-09-23T04:37:10.706Z,85.31
2022-09-23T04:39:53.423Z,85.41
2022-09-23T04:42:23.218Z,85.25
2022-09-23T04:44:52.506Z,85.09
2022-09-23T04:47:21.551Z,85.43
2022-09-23T04:49:50.636Z,85.61
2022-09-23T04:52:20.035Z,85.31
2022-09-23T04:55:02.543Z,85.47
2022-09-23T04:57:31.492Z,85.48
2022-09-23T05:00:01.568Z,85.36
2022-09-23T05:02:32.359Z,85.34
2022-09-23T05:05:02.106Z,85.54
2022-09-23T05:07:31.397Z,85.28
2022-09-23T05:10:15.850Z,85.52
2022-09-23T05:12:46.115Z,85.83
2022-09-23T05:15:16.796Z,85.63
2022-09-23T05:17:45.374Z,85.54
2022-09-23T05:20:14.625Z,85.48
2022-09-23T05:22:43.447Z,85.43
2022-09-23T05:25:25.930Z,85.36
2022-09-23T05:27:55.293Z,85.29
2022-09-23T05:30:24.329Z,85.22
2022-09-23T05:33:06.655Z,85.17
2022-09-23T05:35:49.193Z,85.34
2022-09-23T05:38:18.086Z,85.72
2022-09-23T05:40:46.864Z,85.21
2022-09-23T05:43:15.506Z,85.29
2022-09-23T05:45:44.858Z,85.60
2022-09-23T05:48:13.827Z,85.48
2022-09-23T05:50:53.206Z,85.73
2022-09-23T05:53:22.163Z,85.75
2022-09-23T05:56:08.521Z,86.07
2022-09-23T05:58:41.081Z,86.24
2022-09-23T06:01:25.298Z,85.89
2022-09-23T06:03:58.746Z,85.76
2022-09-23T06:06:38.541Z,86.00
2022-09-23T06:09:11.775Z,86.22
2022-09-23T06:11:41.504Z,85.65
2022-09-23T06:14:14.371Z,85.82
2022-09-23T06:16:45.007Z,85.68
2022-09-23T06:19:15.031Z,85.69
2022-09-23T06:21:57.566Z,85.90
2022-09-23T06:24:31.129Z,86.11
2022-09-23T06:27:01.732Z,86.27
2022-09-23T06:29:32.168Z,86.24
2022-09-23T06:32:01.850Z,86.05
2022-09-23T06:34:51.487Z,85.80
2022-09-23T06:37:21.124Z,86.04
2022-09-23T06:39:50.501Z,85.79
2022-09-23T06:42:19.221Z,86.02
2022-09-23T06:44:48.145Z,85.95
2022-09-23T06:47:16.947Z,86.29
2022-09-23T06:49:45.408Z,86.37
2022-09-23T06:52:14.039Z,86.14
2022-09-23T06:54:57.139Z,86.28
2022-09-23T06:57:40.145Z,86.45
2022-09-23T07:00:09.921Z,86.46
2022-09-23T07:02:52.901Z,86.12
2022-09-23T07:05:22.803Z,86.31
2022-09-23T07:07:51.452Z,86.41
2022-09-23T07:10:20.105Z,86.32
2022-09-23T07:12:48.971Z,86.37
2022-09-23T07:15:32.379Z,86.43
2022-09-23T07:18:01.347Z,86.50
2022-09-23T07:20:32.047Z,86.51
2022-09-23T07:23:02.986Z,86.10
2022-09-23T07:25:34.406Z,86.37
2022-09-23T07:28:03.082Z,86.51
2022-09-23T07:30:31.875Z,86.39
2022-09-23T07:33:00.884Z,86.35
2022-09-23T07:35:30.169Z,86.25
2022-09-23T07:38:13.030Z,86.71
2022-09-23T07:40:42.369Z,86.39
2022-09-23T07:43:11.265Z,86.41
2022-09-23T07:45:44.045Z,86.39
2022-09-23T07:48:12.767Z,86.28
2022-09-23T07:50:41.505Z,86.43
2022-09-23T07:53:10.398Z,86.56
2022-09-23T07:55:57.127Z,86.57
2022-09-23T07:58:26.747Z,86.86
2022-09-23T08:00:55.496Z,86.79
2022-09-23T08:03:39.151Z,86.97
2022-09-23T08:06:10.997Z,86.68
2022-09-23T08:08:43.836Z,86.65
2022-09-23T08:11:14.422Z,86.71
2022-09-23T08:13:43.125Z,86.66
2022-09-23T08:16:11.970Z,86.69
2022-09-23T08:18:45.291Z,86.75
2022-09-23T08:21:20.359Z,86.50
2022-09-23T08:24:03.105Z,86.59
2022-09-23T08:26:46.766Z,86.32
2022-09-23T08:29:18.219Z,86.21
2022-09-23T08:32:00.734Z,86.24
2022-09-23T08:34:29.920Z,85.77
2022-09-23T08:36:58.562Z,85.82
2022-09-23T08:39:27.216Z,85.67
2022-09-23T08:42:17.906Z,85.42
2022-09-23T08:48:12.963Z,85.93
2022-09-23T08:50:49.142Z,85.70
2022-09-23T08:53:37.428Z,85.81
2022-09-23T08:56:19.006Z,85.85
2022-09-23T08:59:00.693Z,85.63
2022-09-23T09:01:45.320Z,85.19
2022-09-23T09:04:36.146Z,84.92
2022-09-23T09:07:34.710Z,84.82
2022-09-23T09:10:07.738Z,84.79
2022-09-23T09:13:03.353Z,84.91
2022-09-23T09:15:36.138Z,84.84
2022-09-23T09:18:19.939Z,83.47
2022-09-23T09:21:01.172Z,83.25
2022-09-23T09:23:54.606Z,83.22
2022-09-23T09:26:27.324Z,83.40
2022-09-23T09:29:36.190Z,83.07
2022-09-23T09:32:16.894Z,82.13
2022-09-23T09:34:58.468Z,82.50
2022-09-23T09:37:53.582Z,82.68
2022-09-23T09:40:22.848Z,81.71
2022-09-23T09:42:51.599Z,81.78
2022-09-23T09:45:41.659Z,81.73
2022-09-23T09:48:24.285Z,81.60
2022-09-23T09:50:56.239Z,80.92
2022-09-23T09:53:28.277Z,80.96
2022-09-23T09:56:06.218Z,80.55
2022-09-23T09:59:08.835Z,80.48
2022-09-23T10:01:37.838Z,80.41
2022-09-23T10:04:34.159Z,79.84
2022-09-23T10:07:14.596Z,79.23
2022-09-23T10:09:51.280Z,78.96
2022-09-23T10:12:22.273Z,79.06
2022-09-23T10:15:05.565Z,78.97
2022-09-23T10:17:35.874Z,79.47
2022-09-23T10:20:09.561Z,78.88
2022-09-23T10:22:52.046Z,78.57
2022-09-23T10:25:24.826Z,78.39
2022-09-23T10:28:38.404Z,78.02
2022-09-23T10:31:27.371Z,78.14
2022-09-23T10:34:00.983Z,77.86
2022-09-23T10:36:32.729Z,77.66
2022-09-23T10:39:27.123Z,76.58
2022-09-23T10:42:40.847Z,76.08
2022-09-23T10:45:52.952Z,75.95
2022-09-23T10:48:41.022Z,75.54
2022-09-23T10:51:39.868Z,76.34
2022-09-23T10:54:48.341Z,76.61
2022-09-23T10:57:41.424Z,76.48
2022-09-23T11:00:33.203Z,75.23
2022-09-23T11:03:07.370Z,73.34
2022-09-23T11:05:44.357Z,72.85
2022-09-23T11:08:38.379Z,72.94
2022-09-23T11:11:34.354Z,73.80
2022-09-23T11:14:41.757Z,74.11
2022-09-23T11:17:15.213Z,74.34
2022-09-23T11:20:10.225Z,74.52
2022-09-23T11:22:57.341Z,74.41
2022-09-23T11:26:05.990Z,74.53
2022-09-23T11:29:06.633Z,74.72
2022-09-23T11:31:50.776Z,74.97
2022-09-23T11:34:31.527Z,75.16
2022-09-23T11:37:25.663Z,75.13
2022-09-23T11:40:05.944Z,74.81
2022-09-23T11:42:58.931Z,75.16
2022-09-23T11:45:34.541Z,75.52
2022-09-23T11:48:11.332Z,75.48
2022-09-23T11:51:03.003Z,74.38
2022-09-23T11:53:43.525Z,75.00
2022-09-23T11:56:38.432Z,73.04
2022-09-23T11:59:41.172Z,71.80
2022-09-23T12:02:30.772Z,70.48
2022-09-23T12:05:20.941Z,69.77
2022-09-23T12:07:57.778Z,70.98
2022-09-23T12:10:42.118Z,70.87
2022-09-23T12:13:32.674Z,69.79
2022-09-23T12:16:08.666Z,70.55
2022-09-23T12:18:49.461Z,70.76
2022-09-23T12:21:48.683Z,70.77
2022-09-23T12:24:46.970Z,70.55
2022-09-23T12:27:45.882Z,70.06
2022-09-23T12:30:28.260Z,69.97
2022-09-23T12:33:32.690Z,70.28
2022-09-23T12:36:15.244Z,69.85
2022-09-23T12:39:13.391Z,69.13
2022-09-23T12:41:47.690Z,69.08
2022-09-23T12:44:30.023Z,69.11
2022-09-23T12:47:21.564Z,69.05
2022-09-23T12:49:51.974Z,68.92
2022-09-23T12:52:20.881Z,68.75
2022-09-23T12:54:51.816Z,69.51
2022-09-23T12:57:39.385Z,69.53
2022-09-23T13:00:13.223Z,69.39
2022-09-23T13:03:11.926Z,69.07
2022-09-23T13:06:20.661Z,68.72
2022-09-23T13:08:50.465Z,69.41
2022-09-23T13:11:25.730Z,68.77
2022-09-23T13:14:00.829Z,68.59
2022-09-23T13:16:33.874Z,69.10
2022-09-23T13:19:34.204Z,68.58
2022-09-23T13:22:09.348Z,68.22
2022-09-23T13:24:44.817Z,67.91
2022-09-23T13:27:24.076Z,67.48
2022-09-23T13:30:14.610Z,68.30
2022-09-23T13:32:53.588Z,67.99
2022-09-23T13:39:53.189Z,66.93
2022-09-23T13:45:23.149Z,67.23
2022-09-23T13:48:05.856Z,66.20
2022-09-23T13:50:41.281Z,66.50
2022-09-23T13:53:25.115Z,66.77
2022-09-23T13:56:16.494Z,66.44
2022-09-23T13:59:16.946Z,66.72
2022-09-23T14:01:47.731Z,66.30
2022-09-23T14:04:30.076Z,66.64
2022-09-23T14:06:59.590Z,66.68
2022-09-23T14:09:30.173Z,66.46
2022-09-23T14:12:01.567Z,66.18
2022-09-23T14:14:44.667Z,66.09
2022-09-23T14:17:27.426Z,65.82
2022-09-23T14:20:18.327Z,64.91
2022-09-23T14:22:46.926Z,64.43
2022-09-23T14:25:18.313Z,65.07
2022-09-23T14:27:47.560Z,65.51
2022-09-23T14:30:21.055Z,65.76
2022-09-23T14:32:50.684Z,65.15
2022-09-23T14:38:48.584Z,65.56
2022-09-23T14:41:26.040Z,65.88
2022-09-23T14:43:59.272Z,65.52
2022-09-23T14:46:31.650Z,65.19
2022-09-23T14:49:12.644Z,64.29
2022-09-23T14:51:54.575Z,64.82
2022-09-23T14:54:32.705Z,64.81
2022-09-23T14:57:19.094Z,65.09
2022-09-23T15:00:21.964Z,65.29
2022-09-23T15:03:03.419Z,64.49
2022-09-23T15:05:41.386Z,64.85
2022-09-23T15:08:13.496Z,64.73
2022-09-23T15:10:42.476Z,65.03
2022-09-23T15:13:18.347Z,64.85
2022-09-23T15:15:47.613Z,65.07
2022-09-23T15:18:21.821Z,65.22
2022-09-23T15:21:12.111Z,64.98
2022-09-23T15:23:47.996Z,65.64
2022-09-23T15:26:19.432Z,65.65
2022-09-23T15:28:49.180Z,65.44
2022-09-23T15:31:23.265Z,64.55
2022-09-23T15:33:51.835Z,64.22
2022-09-23T15:36:23.691Z,64.70
2022-09-23T15:38:52.935Z,64.58
2022-09-23T15:41:24.145Z,64.19
2022-09-23T15:44:19.048Z,64.31
2022-09-23T15:46:51.098Z,64.24
2022-09-23T15:49:31.964Z,63.91
2022-09-23T15:52:02.473Z,64.17
2022-09-23T15:54:32.729Z,64.54
2022-09-23T15:57:02.456Z,64.59
2022-09-23T15:59:31.697Z,65.23
2022-09-23T16:02:06.294Z,65.49
2022-09-23T16:04:36.685Z,65.92
2022-09-23T16:07:05.987Z,65.98
2022-09-23T16:09:34.573Z,66.12
2022-09-23T16:12:03.757Z,66.36
2022-09-23T16:14:32.514Z,66.64
2022-09-23T16:17:03.649Z,66.62
2022-09-23T16:19:34.477Z,66.84
2022-09-23T16:22:05.193Z,66.66
2022-09-23T16:24:47.992Z,66.56
2022-09-23T16:27:19.760Z,66.45
2022-09-23T16:29:48.945Z,66.98
2022-09-23T16:32:31.515Z,66.84
2022-09-23T16:35:14.786Z,67.14
2022-09-23T16:37:47.596Z,67.16
2022-09-23T16:40:20.831Z,67.07
2022-09-23T16:42:52.963Z,67.14
2022-09-23T16:45:23.421Z,67.18
2022-09-23T16:48:06.850Z,67.11
2022-09-23T16:50:35.757Z,67.41
2022-09-23T16:53:06.280Z,67.63
2022-09-23T16:55:53.844Z,67.30
2022-09-23T16:58:23.475Z,67.38
2022-09-23T17:01:16.661Z,67.31
2022-09-23T17:03:45.714Z,67.22
2022-09-23T17:06:16.053Z,67.69
2022-09-23T17:08:49.481Z,67.73
2022-09-23T17:11:18.652Z,67.51
2022-09-23T17:13:47.912Z,67.95
2022-09-23T17:16:32.568Z,68.10
2022-09-23T17:19:10.588Z,68.17
2022-09-23T17:21:39.868Z,68.17
2022-09-23T17:24:10.724Z,68.36
2022-09-23T17:26:40.578Z,68.34
2022-09-23T17:29:11.586Z,68.36
2022-09-23T17:31:40.275Z,68.35
2022-09-23T17:34:09.836Z,68.42
2022-09-23T17:36:39.909Z,68.53
2022-09-23T17:39:08.908Z,68.67
2022-09-23T17:41:39.311Z,68.82
2022-09-23T17:44:11.950Z,68.92
2022-09-23T17:46:40.902Z,68.92
2022-09-23T17:49:09.954Z,69.21
2022-09-23T17:51:38.829Z,69.17
2022-09-23T17:54:08.031Z,69.34
2022-09-23T17:56:36.829Z,69.37
2022-09-23T17:59:05.471Z,69.51
2022-09-23T18:01:37.522Z,69.61
2022-09-23T18:04:11.814Z,69.65
2022-09-23T18:06:48.931Z,69.56
2022-09-23T18:09:33.951Z,69.48
2022-09-23T18:12:06.244Z,69.89
2022-09-23T18:14:39.262Z,69.70
2022-09-23T18:17:14.017Z,69.98
2022-09-23T18:19:49.752Z,69.71
2022-09-23T18:22:20.549Z,69.63
2022-09-23T18:24:51.854Z,69.84
2022-09-23T18:27:24.929Z,70.01
2022-09-23T18:29:55.384Z,70.46
2022-09-23T18:32:25.893Z,70.26
2022-09-23T18:34:56.448Z,70.36
2022-09-23T18:37:25.517Z,70.66
2022-09-23T18:39:54.184Z,70.57
2022-09-23T18:42:24.017Z,71.12
2022-09-23T18:44:56.516Z,71.23
2022-09-23T18:47:45.346Z,70.75
2022-09-23T18:50:32.701Z,70.92
2022-09-23T18:53:10.585Z,71.21
2022-09-23T18:55:43.226Z,71.08
2022-09-23T18:58:14.112Z,71.13
2022-09-23T19:00:46.559Z,71.42
2022-09-23T19:03:17.522Z,71.36
2022-09-23T19:05:47.422Z,71.33
2022-09-23T19:08:16.404Z,71.64
2022-09-23T19:10:45.509Z,71.45
2022-09-23T19:13:14.944Z,71.55
2022-09-23T19:15:45.436Z,71.73
2022-09-23T19:18:14.760Z,72.04
2022-09-23T19:21:04.823Z,72.21
2022-09-23T19:23:50.444Z,72.20
2022-09-23T19:26:23.097Z,72.42
2022-09-23T19:28:59.363Z,72.41
2022-09-23T19:31:34.944Z,72.50
2022-09-23T19:34:12.177Z,72.57
2022-09-23T19:36:51.096Z,72.90
2022-09-23T19:39:25.479Z,73.12
2022-09-23T19:41:56.913Z,73.15
2022-09-23T19:44:28.936Z,73.10
2022-09-23T19:46:58.259Z,73.24
2022-09-23T19:49:40.610Z,73.06
2022-09-23T19:52:09.283Z,73.19
2022-09-23T19:54:38.215Z,73.53
2022-09-23T19:57:06.834Z,73.49
2022-09-23T19:59:40.770Z,73.76
2022-09-23T20:02:14.335Z,73.85
2022-09-23T20:04:42.983Z,73.97
2022-09-23T20:07:11.770Z,73.81
2022-09-23T20:09:40.430Z,73.71
2022-09-23T20:12:11.965Z,73.90
2022-09-23T20:14:42.655Z,73.86
2022-09-23T20:17:25.787Z,73.53
2022-09-23T20:20:09.912Z,73.61
2022-09-23T20:22:39.001Z,73.34
2022-09-23T20:25:14.610Z,73.53
2022-09-23T20:27:50.205Z,73.68
2022-09-23T20:30:22.508Z,73.70
2022-09-23T20:32:53.370Z,73.43
2022-09-23T20:35:24.501Z,73.65
2022-09-23T20:37:58.797Z,73.80
2022-09-23T20:40:33.901Z,73.75
2022-09-23T20:43:05.548Z,73.66
2022-09-23T20:45:35.068Z,73.93
2022-09-23T20:48:06.662Z,73.68
2022-09-23T20:50:44.451Z,74.10
2022-09-23T20:53:19.769Z,74.15
2022-09-23T20:55:54.036Z,74.20
2022-09-23T21:01:48.196Z,74.22
2022-09-23T21:04:17.499Z,74.27
2022-09-23T21:06:46.787Z,74.34
2022-09-23T21:09:15.336Z,74.02
2022-09-23T21:11:44.330Z,74.26
2022-09-23T21:14:13.527Z,74.50
2022-09-23T21:16:45.461Z,74.65
2022-09-23T21:19:14.324Z,74.63
2022-09-23T21:21:43.533Z,74.52
2022-09-23T21:24:40.058Z,74.69
2022-09-23T21:27:03.365Z,74.70
2022-09-23T21:29:32.040Z,74.67
2022-09-23T21:32:00.692Z,74.53
2022-09-23T21:34:30.245Z,74.64
2022-09-23T21:36:58.828Z,74.75
2022-09-23T21:39:27.695Z,74.77
2022-09-23T21:42:12.317Z,74.97
2022-09-23T21:44:41.710Z,74.85
2022-09-23T21:47:10.554Z,74.72
2022-09-23T21:49:40.164Z,74.57
2022-09-23T21:52:10.315Z,74.62
2022-09-23T21:54:39.016Z,74.49
2022-09-23T21:57:08.266Z,74.54
2022-09-23T21:59:37.342Z,74.79
2022-09-23T22:02:06.405Z,74.67
2022-09-23T22:04:48.854Z,74.64
2022-09-23T22:07:17.856Z,74.85
2022-09-23T22:10:00.365Z,74.73
2022-09-23T22:12:29.359Z,74.78
2022-09-23T22:15:12.313Z,74.50
2022-09-23T22:17:41.326Z,74.66
2022-09-23T22:20:10.391Z,74.80
2022-09-23T22:22:48.829Z,75.03
2022-09-23T22:25:20.652Z,75.02
2022-09-23T22:28:22.108Z,75.07
2022-09-23T22:31:09.315Z,75.04
2022-09-23T22:33:41.319Z,75.22
2022-09-23T22:36:17.789Z,75.53
2022-09-23T22:38:47.314Z,75.74
2022-09-23T22:41:16.370Z,75.31
2022-09-23T22:43:45.623Z,75.39
2022-09-23T22:46:22.291Z,75.39
2022-09-23T22:48:53.067Z,75.87
2022-09-23T22:51:38.060Z,75.94
2022-09-23T22:54:23.723Z,76.05
2022-09-23T22:56:53.124Z,75.81
2022-09-23T22:59:37.809Z,75.65
2022-09-23T23:02:25.506Z,75.69
2022-09-23T23:04:56.489Z,75.45
2022-09-23T23:07:25.512Z,75.62
2022-09-23T23:09:54.764Z,75.47
2022-09-23T23:12:37.370Z,75.30
2022-09-23T23:15:07.001Z,75.59
2022-09-23T23:17:49.944Z,75.75
2022-09-23T23:20:32.828Z,75.71
2022-09-23T23:23:03.387Z,75.87
2022-09-23T23:25:32.783Z,76.01
2022-09-23T23:28:01.910Z,76.02
2022-09-23T23:30:44.394Z,76.22
2022-09-23T23:33:13.442Z,76.46
2022-09-23T23:35:55.913Z,76.03
2022-09-23T23:38:24.979Z,76.08
2022-09-23T23:40:55.617Z,76.29
2022-09-23T23:43:40.235Z,76.28
2022-09-23T23:46:25.649Z,76.31
2022-09-23T23:48:56.313Z,76.44
2022-09-23T23:51:26.822Z,76.73
2022-09-23T23:54:09.467Z,77.08
2022-09-23T23:56:38.941Z,77.08
2022-09-23T23:59:08.343Z,76.71
